sensor_id;sensor_type;location;lat;lon;timestamp;P1;durP1;ratioP1;P2;durP2;ratioP2
5277;SDS011;2662;51.194;6.614;2022-08-21T00:00:05;22.23;;;7.33;;
5277;SDS011;2662;51.194;6.614;2022-08-21T00:02:36;13.10;;;7.20;;
5277;SDS011;2662;51.194;6.614;2022-08-21T00:05:03;9.73;;;6.53;;
5277;SDS011;2662;51.194;6.614;2022-08-21T00:07:32;18.20;;;7.03;;
5277;SDS011;2662;51.194;6.614;2022-08-21T00:09:59;13.20;;;7.63;;
5277;SDS011;2662;51.194;6.614;2022-08-21T00:12:25;16.13;;;8.00;;
5277;SDS011;2662;51.194;6.614;2022-08-21T00:14:52;13.57;;;7.50;;
5277;SDS011;2662;51.194;6.614;2022-08-21T00:17:19;15.60;;;8.90;;
5277;SDS011;2662;51.194;6.614;2022-08-21T00:19:47;21.10;;;8.50;;
5277;SDS011;2662;51.194;6.614;2022-08-21T00:22:14;14.73;;;8.03;;
5277;SDS011;2662;51.194;6.614;2022-08-21T00:24:43;15.27;;;7.83;;
5277;SDS011;2662;51.194;6.614;2022-08-21T00:27:10;13.87;;;7.53;;
5277;SDS011;2662;51.194;6.614;2022-08-21T00:29:37;8.80;;;7.00;;
5277;SDS011;2662;51.194;6.614;2022-08-21T00:32:04;14.70;;;8.07;;
5277;SDS011;2662;51.194;6.614;2022-08-21T00:34:31;16.30;;;8.07;;
5277;SDS011;2662;51.194;6.614;2022-08-21T00:36:57;9.63;;;7.23;;
5277;SDS011;2662;51.194;6.614;2022-08-21T00:39:24;17.27;;;7.90;;
5277;SDS011;2662;51.194;6.614;2022-08-21T00:41:52;12.80;;;7.67;;
5277;SDS011;2662;51.194;6.614;2022-08-21T00:44:19;15.47;;;7.97;;
5277;SDS011;2662;51.194;6.614;2022-08-21T00:46:46;16.57;;;8.20;;
5277;SDS011;2662;51.194;6.614;2022-08-21T00:49:13;19.33;;;8.30;;
5277;SDS011;2662;51.194;6.614;2022-08-21T00:51:42;16.70;;;8.53;;
5277;SDS011;2662;51.194;6.614;2022-08-21T00:54:13;11.13;;;8.17;;
5277;SDS011;2662;51.194;6.614;2022-08-21T00:56:41;14.80;;;8.07;;
5277;SDS011;2662;51.194;6.614;2022-08-21T00:59:09;12.63;;;8.20;;
5277;SDS011;2662;51.194;6.614;2022-08-21T01:01:36;16.00;;;8.77;;
5277;SDS011;2662;51.194;6.614;2022-08-21T01:04:03;15.90;;;8.53;;
5277;SDS011;2662;51.194;6.614;2022-08-21T01:06:30;23.43;;;9.00;;
5277;SDS011;2662;51.194;6.614;2022-08-21T01:08:57;19.43;;;8.97;;
5277;SDS011;2662;51.194;6.614;2022-08-21T01:11:24;15.77;;;8.60;;
5277;SDS011;2662;51.194;6.614;2022-08-21T01:13:51;16.00;;;9.20;;
5277;SDS011;2662;51.194;6.614;2022-08-21T01:16:20;16.17;;;8.93;;
5277;SDS011;2662;51.194;6.614;2022-08-21T01:18:48;13.73;;;9.10;;
5277;SDS011;2662;51.194;6.614;2022-08-21T01:21:18;14.93;;;9.33;;
5277;SDS011;2662;51.194;6.614;2022-08-21T01:23:47;19.40;;;9.10;;
5277;SDS011;2662;51.194;6.614;2022-08-21T01:26:17;13.60;;;8.93;;
5277;SDS011;2662;51.194;6.614;2022-08-21T01:28:47;17.53;;;10.10;;
5277;SDS011;2662;51.194;6.614;2022-08-21T01:31:18;13.90;;;8.87;;
5277;SDS011;2662;51.194;6.614;2022-08-21T01:33:47;17.87;;;9.43;;
5277;SDS011;2662;51.194;6.614;2022-08-21T01:36:14;13.90;;;8.20;;
5277;SDS011;2662;51.194;6.614;2022-08-21T01:38:42;12.90;;;8.63;;
5277;SDS011;2662;51.194;6.614;2022-08-21T01:41:09;15.73;;;8.67;;
5277;SDS011;2662;51.194;6.614;2022-08-21T01:43:36;22.17;;;8.70;;
5277;SDS011;2662;51.194;6.614;2022-08-21T01:46:03;16.07;;;8.40;;
5277;SDS011;2662;51.194;6.614;2022-08-21T01:48:30;11.90;;;8.30;;
5277;SDS011;2662;51.194;6.614;2022-08-21T01:50:56;24.13;;;8.43;;
5277;SDS011;2662;51.194;6.614;2022-08-21T01:53:23;10.30;;;8.73;;
5277;SDS011;2662;51.194;6.614;2022-08-21T01:55:52;11.97;;;7.70;;
5277;SDS011;2662;51.194;6.614;2022-08-21T01:58:18;16.83;;;9.23;;
5277;SDS011;2662;51.194;6.614;2022-08-21T02:00:45;12.47;;;7.97;;
5277;SDS011;2662;51.194;6.614;2022-08-21T02:03:12;13.33;;;8.50;;
5277;SDS011;2662;51.194;6.614;2022-08-21T02:05:39;15.67;;;8.10;;
5277;SDS011;2662;51.194;6.614;2022-08-21T02:08:06;14.90;;;8.43;;
5277;SDS011;2662;51.194;6.614;2022-08-21T02:10:33;16.37;;;8.53;;
5277;SDS011;2662;51.194;6.614;2022-08-21T02:13:01;16.03;;;8.67;;
5277;SDS011;2662;51.194;6.614;2022-08-21T02:15:29;16.10;;;9.10;;
5277;SDS011;2662;51.194;6.614;2022-08-21T02:17:57;14.93;;;8.70;;
5277;SDS011;2662;51.194;6.614;2022-08-21T02:20:27;13.63;;;9.37;;
5277;SDS011;2662;51.194;6.614;2022-08-21T02:22:56;18.10;;;9.27;;
5277;SDS011;2662;51.194;6.614;2022-08-21T02:25:23;14.13;;;8.60;;
5277;SDS011;2662;51.194;6.614;2022-08-21T02:27:51;24.40;;;9.10;;
5277;SDS011;2662;51.194;6.614;2022-08-21T02:30:20;15.10;;;8.90;;
5277;SDS011;2662;51.194;6.614;2022-08-21T02:32:48;13.63;;;8.80;;
5277;SDS011;2662;51.194;6.614;2022-08-21T02:35:16;14.77;;;9.17;;
5277;SDS011;2662;51.194;6.614;2022-08-21T02:37:44;12.63;;;9.03;;
5277;SDS011;2662;51.194;6.614;2022-08-21T02:40:13;15.63;;;8.47;;
5277;SDS011;2662;51.194;6.614;2022-08-21T02:42:41;18.50;;;9.03;;
5277;SDS011;2662;51.194;6.614;2022-08-21T02:45:09;19.20;;;9.27;;
5277;SDS011;2662;51.194;6.614;2022-08-21T02:47:38;14.53;;;8.37;;
5277;SDS011;2662;51.194;6.614;2022-08-21T02:50:06;15.97;;;8.87;;
5277;SDS011;2662;51.194;6.614;2022-08-21T02:52:33;13.83;;;9.27;;
5277;SDS011;2662;51.194;6.614;2022-08-21T02:55:02;12.53;;;8.97;;
5277;SDS011;2662;51.194;6.614;2022-08-21T02:57:29;21.13;;;9.23;;
5277;SDS011;2662;51.194;6.614;2022-08-21T02:59:57;22.87;;;10.73;;
5277;SDS011;2662;51.194;6.614;2022-08-21T03:02:24;27.70;;;9.93;;
5277;SDS011;2662;51.194;6.614;2022-08-21T03:04:52;21.40;;;10.47;;
5277;SDS011;2662;51.194;6.614;2022-08-21T03:07:19;22.27;;;10.33;;
5277;SDS011;2662;51.194;6.614;2022-08-21T03:09:46;25.03;;;11.70;;
5277;SDS011;2662;51.194;6.614;2022-08-21T03:12:13;17.70;;;10.13;;
5277;SDS011;2662;51.194;6.614;2022-08-21T03:14:40;20.73;;;9.77;;
5277;SDS011;2662;51.194;6.614;2022-08-21T03:17:06;24.60;;;10.00;;
5277;SDS011;2662;51.194;6.614;2022-08-21T03:19:34;19.87;;;9.90;;
5277;SDS011;2662;51.194;6.614;2022-08-21T03:22:02;26.63;;;9.63;;
5277;SDS011;2662;51.194;6.614;2022-08-21T03:24:30;18.83;;;9.17;;
5277;SDS011;2662;51.194;6.614;2022-08-21T03:26:57;22.90;;;9.73;;
5277;SDS011;2662;51.194;6.614;2022-08-21T03:29:24;25.57;;;10.93;;
5277;SDS011;2662;51.194;6.614;2022-08-21T03:31:51;29.40;;;10.20;;
5277;SDS011;2662;51.194;6.614;2022-08-21T03:34:19;24.53;;;10.30;;
5277;SDS011;2662;51.194;6.614;2022-08-21T03:36:46;19.53;;;9.43;;
5277;SDS011;2662;51.194;6.614;2022-08-21T03:39:15;30.63;;;10.60;;
5277;SDS011;2662;51.194;6.614;2022-08-21T03:41:42;22.50;;;10.27;;
5277;SDS011;2662;51.194;6.614;2022-08-21T03:44:08;28.30;;;10.87;;
5277;SDS011;2662;51.194;6.614;2022-08-21T03:46:35;21.80;;;9.77;;
5277;SDS011;2662;51.194;6.614;2022-08-21T03:49:02;27.03;;;10.00;;
5277;SDS011;2662;51.194;6.614;2022-08-21T03:51:29;21.73;;;10.07;;
5277;SDS011;2662;51.194;6.614;2022-08-21T03:53:57;24.73;;;9.40;;
5277;SDS011;2662;51.194;6.614;2022-08-21T03:56:25;31.97;;;11.23;;
5277;SDS011;2662;51.194;6.614;2022-08-21T03:58:52;27.33;;;10.20;;
5277;SDS011;2662;51.194;6.614;2022-08-21T04:01:19;23.90;;;10.63;;
5277;SDS011;2662;51.194;6.614;2022-08-21T04:03:45;21.50;;;9.40;;
5277;SDS011;2662;51.194;6.614;2022-08-21T04:06:12;22.27;;;10.17;;
5277;SDS011;2662;51.194;6.614;2022-08-21T04:08:39;20.40;;;10.60;;
5277;SDS011;2662;51.194;6.614;2022-08-21T04:11:08;19.33;;;10.40;;
5277;SDS011;2662;51.194;6.614;2022-08-21T04:13:37;31.60;;;10.03;;
5277;SDS011;2662;51.194;6.614;2022-08-21T04:16:05;31.30;;;10.50;;
5277;SDS011;2662;51.194;6.614;2022-08-21T04:18:33;27.83;;;11.47;;
5277;SDS011;2662;51.194;6.614;2022-08-21T04:21:00;21.63;;;10.47;;
5277;SDS011;2662;51.194;6.614;2022-08-21T04:23:29;30.73;;;11.77;;
5277;SDS011;2662;51.194;6.614;2022-08-21T04:25:56;44.27;;;11.33;;
5277;SDS011;2662;51.194;6.614;2022-08-21T04:28:23;35.53;;;11.83;;
5277;SDS011;2662;51.194;6.614;2022-08-21T04:30:54;47.87;;;10.97;;
5277;SDS011;2662;51.194;6.614;2022-08-21T04:33:21;20.67;;;10.73;;
5277;SDS011;2662;51.194;6.614;2022-08-21T04:35:49;22.17;;;11.47;;
5277;SDS011;2662;51.194;6.614;2022-08-21T04:38:16;42.07;;;10.90;;
5277;SDS011;2662;51.194;6.614;2022-08-21T04:40:43;28.57;;;10.57;;
5277;SDS011;2662;51.194;6.614;2022-08-21T04:43:10;25.50;;;9.97;;
5277;SDS011;2662;51.194;6.614;2022-08-21T04:45:38;26.17;;;11.00;;
5277;SDS011;2662;51.194;6.614;2022-08-21T04:48:08;27.03;;;11.17;;
5277;SDS011;2662;51.194;6.614;2022-08-21T04:50:38;24.77;;;10.10;;
5277;SDS011;2662;51.194;6.614;2022-08-21T04:53:09;18.43;;;10.10;;
5277;SDS011;2662;51.194;6.614;2022-08-21T04:55:38;25.90;;;11.10;;
5277;SDS011;2662;51.194;6.614;2022-08-21T04:58:07;39.17;;;10.40;;
5277;SDS011;2662;51.194;6.614;2022-08-21T05:00:36;27.20;;;9.63;;
5277;SDS011;2662;51.194;6.614;2022-08-21T05:03:03;29.03;;;10.90;;
5277;SDS011;2662;51.194;6.614;2022-08-21T05:05:35;33.07;;;10.27;;
5277;SDS011;2662;51.194;6.614;2022-08-21T05:08:02;19.80;;;10.73;;
5277;SDS011;2662;51.194;6.614;2022-08-21T05:10:29;19.93;;;9.40;;
5277;SDS011;2662;51.194;6.614;2022-08-21T05:12:57;22.73;;;10.27;;
5277;SDS011;2662;51.194;6.614;2022-08-21T05:15:25;23.03;;;9.73;;
5277;SDS011;2662;51.194;6.614;2022-08-21T05:17:52;26.23;;;9.13;;
5277;SDS011;2662;51.194;6.614;2022-08-21T05:20:19;22.23;;;8.80;;
5277;SDS011;2662;51.194;6.614;2022-08-21T05:22:47;19.60;;;8.73;;
5277;SDS011;2662;51.194;6.614;2022-08-21T05:25:14;23.60;;;8.47;;
5277;SDS011;2662;51.194;6.614;2022-08-21T05:27:42;17.03;;;7.50;;
5277;SDS011;2662;51.194;6.614;2022-08-21T05:30:09;25.30;;;7.90;;
5277;SDS011;2662;51.194;6.614;2022-08-21T05:32:36;32.10;;;7.90;;
5277;SDS011;2662;51.194;6.614;2022-08-21T05:35:04;22.63;;;8.20;;
5277;SDS011;2662;51.194;6.614;2022-08-21T05:37:32;19.03;;;8.23;;
5277;SDS011;2662;51.194;6.614;2022-08-21T05:40:00;26.20;;;7.63;;
5277;SDS011;2662;51.194;6.614;2022-08-21T05:42:28;17.73;;;7.83;;
5277;SDS011;2662;51.194;6.614;2022-08-21T05:44:55;17.00;;;7.30;;
5277;SDS011;2662;51.194;6.614;2022-08-21T05:47:22;17.87;;;7.20;;
5277;SDS011;2662;51.194;6.614;2022-08-21T05:49:49;15.80;;;6.00;;
5277;SDS011;2662;51.194;6.614;2022-08-21T05:52:18;12.73;;;5.60;;
5277;SDS011;2662;51.194;6.614;2022-08-21T05:54:44;10.63;;;5.23;;
5277;SDS011;2662;51.194;6.614;2022-08-21T05:57:13;8.90;;;5.37;;
5277;SDS011;2662;51.194;6.614;2022-08-21T05:59:40;19.23;;;5.47;;
5277;SDS011;2662;51.194;6.614;2022-08-21T06:02:06;14.53;;;4.60;;
5277;SDS011;2662;51.194;6.614;2022-08-21T06:04:35;14.87;;;4.40;;
5277;SDS011;2662;51.194;6.614;2022-08-21T06:07:02;10.23;;;4.83;;
5277;SDS011;2662;51.194;6.614;2022-08-21T06:09:29;9.50;;;4.43;;
5277;SDS011;2662;51.194;6.614;2022-08-21T06:11:56;8.33;;;3.53;;
5277;SDS011;2662;51.194;6.614;2022-08-21T06:14:24;10.27;;;3.90;;
5277;SDS011;2662;51.194;6.614;2022-08-21T06:16:51;11.27;;;3.60;;
5277;SDS011;2662;51.194;6.614;2022-08-21T06:19:17;6.43;;;3.50;;
5277;SDS011;2662;51.194;6.614;2022-08-21T06:21:44;8.10;;;3.47;;
5277;SDS011;2662;51.194;6.614;2022-08-21T06:24:11;10.73;;;3.30;;
5277;SDS011;2662;51.194;6.614;2022-08-21T06:26:38;13.83;;;3.80;;
5277;SDS011;2662;51.194;6.614;2022-08-21T06:29:05;11.53;;;4.10;;
5277;SDS011;2662;51.194;6.614;2022-08-21T06:31:36;8.60;;;3.67;;
5277;SDS011;2662;51.194;6.614;2022-08-21T06:34:05;14.93;;;3.93;;
5277;SDS011;2662;51.194;6.614;2022-08-21T06:36:32;5.90;;;3.30;;
5277;SDS011;2662;51.194;6.614;2022-08-21T06:38:59;10.00;;;3.40;;
5277;SDS011;2662;51.194;6.614;2022-08-21T06:41:26;5.83;;;3.47;;
5277;SDS011;2662;51.194;6.614;2022-08-21T06:43:53;7.57;;;3.37;;
5277;SDS011;2662;51.194;6.614;2022-08-21T06:46:20;7.10;;;3.20;;
5277;SDS011;2662;51.194;6.614;2022-08-21T06:48:48;4.60;;;2.67;;
5277;SDS011;2662;51.194;6.614;2022-08-21T06:51:15;11.53;;;3.43;;
5277;SDS011;2662;51.194;6.614;2022-08-21T06:53:42;8.17;;;3.40;;
5277;SDS011;2662;51.194;6.614;2022-08-21T06:56:09;5.47;;;2.70;;
5277;SDS011;2662;51.194;6.614;2022-08-21T06:58:36;6.43;;;2.87;;
5277;SDS011;2662;51.194;6.614;2022-08-21T07:01:04;5.57;;;2.90;;
5277;SDS011;2662;51.194;6.614;2022-08-21T07:03:31;8.67;;;3.23;;
5277;SDS011;2662;51.194;6.614;2022-08-21T07:06:01;4.77;;;2.50;;
5277;SDS011;2662;51.194;6.614;2022-08-21T07:08:28;11.07;;;3.40;;
5277;SDS011;2662;51.194;6.614;2022-08-21T07:10:56;9.77;;;3.07;;
5277;SDS011;2662;51.194;6.614;2022-08-21T07:13:25;5.87;;;2.53;;
5277;SDS011;2662;51.194;6.614;2022-08-21T07:15:52;6.03;;;2.80;;
5277;SDS011;2662;51.194;6.614;2022-08-21T07:18:19;7.30;;;2.80;;
5277;SDS011;2662;51.194;6.614;2022-08-21T07:20:46;5.90;;;2.50;;
5277;SDS011;2662;51.194;6.614;2022-08-21T07:23:16;4.43;;;2.33;;
5277;SDS011;2662;51.194;6.614;2022-08-21T07:25:48;8.30;;;2.50;;
5277;SDS011;2662;51.194;6.614;2022-08-21T07:28:14;3.50;;;2.30;;
5277;SDS011;2662;51.194;6.614;2022-08-21T07:30:41;7.23;;;2.73;;
5277;SDS011;2662;51.194;6.614;2022-08-21T07:33:08;6.10;;;2.37;;
5277;SDS011;2662;51.194;6.614;2022-08-21T07:35:35;3.67;;;2.00;;
5277;SDS011;2662;51.194;6.614;2022-08-21T07:38:02;7.43;;;2.57;;
5277;SDS011;2662;51.194;6.614;2022-08-21T07:40:30;6.20;;;2.10;;
5277;SDS011;2662;51.194;6.614;2022-08-21T07:42:57;5.00;;;2.40;;
5277;SDS011;2662;51.194;6.614;2022-08-21T07:45:23;5.73;;;1.90;;
5277;SDS011;2662;51.194;6.614;2022-08-21T07:47:51;7.10;;;2.40;;
5277;SDS011;2662;51.194;6.614;2022-08-21T07:50:18;4.97;;;1.70;;
5277;SDS011;2662;51.194;6.614;2022-08-21T07:52:45;6.00;;;1.70;;
5277;SDS011;2662;51.194;6.614;2022-08-21T07:55:13;5.00;;;2.20;;
5277;SDS011;2662;51.194;6.614;2022-08-21T07:57:43;5.10;;;2.23;;
5277;SDS011;2662;51.194;6.614;2022-08-21T08:00:11;4.57;;;2.50;;
5277;SDS011;2662;51.194;6.614;2022-08-21T08:02:40;5.90;;;2.03;;
5277;SDS011;2662;51.194;6.614;2022-08-21T08:05:08;3.80;;;1.80;;
5277;SDS011;2662;51.194;6.614;2022-08-21T08:07:36;3.63;;;2.03;;
5277;SDS011;2662;51.194;6.614;2022-08-21T08:10:05;3.50;;;1.70;;
5277;SDS011;2662;51.194;6.614;2022-08-21T08:12:33;3.33;;;2.40;;
5277;SDS011;2662;51.194;6.614;2022-08-21T08:15:01;3.33;;;2.20;;
5277;SDS011;2662;51.194;6.614;2022-08-21T08:17:29;4.03;;;2.03;;
5277;SDS011;2662;51.194;6.614;2022-08-21T08:19:57;7.63;;;2.30;;
5277;SDS011;2662;51.194;6.614;2022-08-21T08:22:24;6.33;;;2.50;;
5277;SDS011;2662;51.194;6.614;2022-08-21T08:24:51;3.63;;;2.20;;
5277;SDS011;2662;51.194;6.614;2022-08-21T08:27:19;5.77;;;1.67;;
5277;SDS011;2662;51.194;6.614;2022-08-21T08:29:46;2.10;;;1.90;;
5277;SDS011;2662;51.194;6.614;2022-08-21T08:32:14;4.17;;;1.77;;
5277;SDS011;2662;51.194;6.614;2022-08-21T08:34:41;2.97;;;1.80;;
5277;SDS011;2662;51.194;6.614;2022-08-21T08:37:08;2.90;;;1.70;;
5277;SDS011;2662;51.194;6.614;2022-08-21T08:39:36;4.83;;;1.20;;
5277;SDS011;2662;51.194;6.614;2022-08-21T08:42:04;2.43;;;1.03;;
5277;SDS011;2662;51.194;6.614;2022-08-21T08:44:34;3.03;;;1.30;;
5277;SDS011;2662;51.194;6.614;2022-08-21T08:47:01;3.23;;;1.77;;
5277;SDS011;2662;51.194;6.614;2022-08-21T08:49:34;4.20;;;1.47;;
5277;SDS011;2662;51.194;6.614;2022-08-21T08:52:18;5.23;;;1.83;;
5277;SDS011;2662;51.194;6.614;2022-08-21T08:54:50;5.67;;;1.50;;
5277;SDS011;2662;51.194;6.614;2022-08-21T08:57:22;3.33;;;1.47;;
5277;SDS011;2662;51.194;6.614;2022-08-21T08:59:51;3.47;;;1.50;;
5277;SDS011;2662;51.194;6.614;2022-08-21T09:02:20;2.33;;;1.13;;
5277;SDS011;2662;51.194;6.614;2022-08-21T09:04:49;5.27;;;2.07;;
5277;SDS011;2662;51.194;6.614;2022-08-21T09:07:20;4.80;;;1.70;;
5277;SDS011;2662;51.194;6.614;2022-08-21T09:10:04;2.80;;;1.47;;
5277;SDS011;2662;51.194;6.614;2022-08-21T09:12:39;3.83;;;1.40;;
5277;SDS011;2662;51.194;6.614;2022-08-21T09:15:21;2.90;;;1.50;;
5277;SDS011;2662;51.194;6.614;2022-08-21T09:18:08;1.30;;;1.20;;
5277;SDS011;2662;51.194;6.614;2022-08-21T09:20:56;5.60;;;1.57;;
5277;SDS011;2662;51.194;6.614;2022-08-21T09:23:32;2.20;;;1.30;;
5277;SDS011;2662;51.194;6.614;2022-08-21T09:26:07;3.90;;;1.53;;
5277;SDS011;2662;51.194;6.614;2022-08-21T09:28:39;3.37;;;1.47;;
5277;SDS011;2662;51.194;6.614;2022-08-21T09:31:07;2.13;;;1.40;;
5277;SDS011;2662;51.194;6.614;2022-08-21T09:33:38;2.50;;;1.00;;
5277;SDS011;2662;51.194;6.614;2022-08-21T09:36:06;3.70;;;1.20;;
5277;SDS011;2662;51.194;6.614;2022-08-21T09:38:34;5.80;;;1.20;;
5277;SDS011;2662;51.194;6.614;2022-08-21T09:41:03;8.30;;;1.60;;
5277;SDS011;2662;51.194;6.614;2022-08-21T09:43:32;5.93;;;1.90;;
5277;SDS011;2662;51.194;6.614;2022-08-21T09:48:47;6.03;;;1.40;;
5277;SDS011;2662;51.194;6.614;2022-08-21T09:51:17;3.77;;;1.53;;
5277;SDS011;2662;51.194;6.614;2022-08-21T09:53:48;5.90;;;1.40;;
5277;SDS011;2662;51.194;6.614;2022-08-21T09:56:18;2.63;;;1.57;;
5277;SDS011;2662;51.194;6.614;2022-08-21T09:59:13;3.63;;;1.40;;
5277;SDS011;2662;51.194;6.614;2022-08-21T10:01:43;3.53;;;1.37;;
5277;SDS011;2662;51.194;6.614;2022-08-21T10:04:11;3.20;;;1.50;;
5277;SDS011;2662;51.194;6.614;2022-08-21T10:06:39;6.53;;;1.80;;
5277;SDS011;2662;51.194;6.614;2022-08-21T10:09:07;6.50;;;1.40;;
5277;SDS011;2662;51.194;6.614;2022-08-21T10:11:35;2.80;;;1.30;;
5277;SDS011;2662;51.194;6.614;2022-08-21T10:14:07;2.07;;;1.10;;
5277;SDS011;2662;51.194;6.614;2022-08-21T10:16:42;3.80;;;1.30;;
5277;SDS011;2662;51.194;6.614;2022-08-21T10:19:21;2.90;;;1.40;;
5277;SDS011;2662;51.194;6.614;2022-08-21T10:22:07;5.17;;;1.43;;
5277;SDS011;2662;51.194;6.614;2022-08-21T10:24:47;3.80;;;1.40;;
5277;SDS011;2662;51.194;6.614;2022-08-21T10:27:24;6.90;;;1.63;;
5277;SDS011;2662;51.194;6.614;2022-08-21T10:30:04;6.07;;;1.90;;
5277;SDS011;2662;51.194;6.614;2022-08-21T10:32:37;6.97;;;1.50;;
5277;SDS011;2662;51.194;6.614;2022-08-21T10:35:18;5.90;;;1.60;;
5277;SDS011;2662;51.194;6.614;2022-08-21T10:37:55;3.33;;;1.37;;
5277;SDS011;2662;51.194;6.614;2022-08-21T10:40:34;5.90;;;1.37;;
5277;SDS011;2662;51.194;6.614;2022-08-21T10:43:09;3.50;;;1.50;;
5277;SDS011;2662;51.194;6.614;2022-08-21T10:45:48;2.80;;;1.50;;
5277;SDS011;2662;51.194;6.614;2022-08-21T10:48:22;4.50;;;1.57;;
5277;SDS011;2662;51.194;6.614;2022-08-21T10:50:54;6.13;;;1.80;;
5277;SDS011;2662;51.194;6.614;2022-08-21T10:53:31;3.40;;;1.73;;
5277;SDS011;2662;51.194;6.614;2022-08-21T10:56:10;8.93;;;1.33;;
5277;SDS011;2662;51.194;6.614;2022-08-21T10:58:45;7.40;;;1.90;;
5277;SDS011;2662;51.194;6.614;2022-08-21T11:01:18;2.80;;;1.00;;
5277;SDS011;2662;51.194;6.614;2022-08-21T11:03:52;5.37;;;1.63;;
5277;SDS011;2662;51.194;6.614;2022-08-21T11:06:30;3.57;;;1.60;;
5277;SDS011;2662;51.194;6.614;2022-08-21T11:09:03;4.40;;;1.83;;
5277;SDS011;2662;51.194;6.614;2022-08-21T11:11:36;5.03;;;1.97;;
5277;SDS011;2662;51.194;6.614;2022-08-21T11:14:08;5.20;;;1.70;;
5277;SDS011;2662;51.194;6.614;2022-08-21T11:16:39;6.53;;;1.77;;
5277;SDS011;2662;51.194;6.614;2022-08-21T11:19:12;7.63;;;1.67;;
5277;SDS011;2662;51.194;6.614;2022-08-21T11:21:45;5.90;;;1.80;;
5277;SDS011;2662;51.194;6.614;2022-08-21T11:24:21;6.50;;;2.40;;
5277;SDS011;2662;51.194;6.614;2022-08-21T11:26:57;5.17;;;1.63;;
5277;SDS011;2662;51.194;6.614;2022-08-21T11:29:29;6.80;;;1.63;;
5277;SDS011;2662;51.194;6.614;2022-08-21T11:32:03;5.70;;;1.70;;
5277;SDS011;2662;51.194;6.614;2022-08-21T11:34:47;6.40;;;2.20;;
5277;SDS011;2662;51.194;6.614;2022-08-21T11:37:24;8.43;;;1.50;;
5277;SDS011;2662;51.194;6.614;2022-08-21T11:40:04;5.87;;;1.47;;
5277;SDS011;2662;51.194;6.614;2022-08-21T11:42:38;2.30;;;1.30;;
5277;SDS011;2662;51.194;6.614;2022-08-21T11:45:17;4.53;;;1.77;;
5277;SDS011;2662;51.194;6.614;2022-08-21T11:47:54;6.83;;;1.80;;
5277;SDS011;2662;51.194;6.614;2022-08-21T11:50:27;2.97;;;1.00;;
5277;SDS011;2662;51.194;6.614;2022-08-21T11:52:56;4.00;;;1.40;;
5277;SDS011;2662;51.194;6.614;2022-08-21T11:55:31;1.67;;;1.43;;
5277;SDS011;2662;51.194;6.614;2022-08-21T11:58:04;2.40;;;1.23;;
5277;SDS011;2662;51.194;6.614;2022-08-21T12:00:37;3.03;;;1.50;;
5277;SDS011;2662;51.194;6.614;2022-08-21T12:03:09;2.57;;;1.30;;
5277;SDS011;2662;51.194;6.614;2022-08-21T12:05:41;5.60;;;1.63;;
5277;SDS011;2662;51.194;6.614;2022-08-21T12:08:11;6.10;;;1.80;;
5277;SDS011;2662;51.194;6.614;2022-08-21T12:10:45;5.03;;;1.30;;
5277;SDS011;2662;51.194;6.614;2022-08-21T12:13:21;4.30;;;2.00;;
5277;SDS011;2662;51.194;6.614;2022-08-21T12:15:50;6.13;;;1.40;;
5277;SDS011;2662;51.194;6.614;2022-08-21T12:18:21;6.17;;;1.37;;
5277;SDS011;2662;51.194;6.614;2022-08-21T12:21:01;7.60;;;1.73;;
5277;SDS011;2662;51.194;6.614;2022-08-21T12:23:32;3.57;;;1.40;;
5277;SDS011;2662;51.194;6.614;2022-08-21T12:26:14;2.50;;;1.70;;
5277;SDS011;2662;51.194;6.614;2022-08-21T12:28:48;2.97;;;1.23;;
5277;SDS011;2662;51.194;6.614;2022-08-21T12:31:19;4.53;;;1.33;;
5277;SDS011;2662;51.194;6.614;2022-08-21T12:33:51;3.80;;;1.30;;
5277;SDS011;2662;51.194;6.614;2022-08-21T12:36:22;2.20;;;1.10;;
5277;SDS011;2662;51.194;6.614;2022-08-21T12:38:52;4.57;;;1.60;;
5277;SDS011;2662;51.194;6.614;2022-08-21T12:41:26;2.03;;;1.00;;
5277;SDS011;2662;51.194;6.614;2022-08-21T12:43:57;3.20;;;1.37;;
5277;SDS011;2662;51.194;6.614;2022-08-21T12:46:27;3.13;;;1.20;;
5277;SDS011;2662;51.194;6.614;2022-08-21T12:49:01;4.53;;;1.30;;
5277;SDS011;2662;51.194;6.614;2022-08-21T12:51:36;4.13;;;1.90;;
5277;SDS011;2662;51.194;6.614;2022-08-21T12:54:21;3.73;;;1.10;;
5277;SDS011;2662;51.194;6.614;2022-08-21T12:56:56;2.60;;;1.47;;
5277;SDS011;2662;51.194;6.614;2022-08-21T12:59:28;2.13;;;1.17;;
5277;SDS011;2662;51.194;6.614;2022-08-21T13:01:56;3.43;;;1.33;;
5277;SDS011;2662;51.194;6.614;2022-08-21T13:04:30;7.07;;;1.40;;
5277;SDS011;2662;51.194;6.614;2022-08-21T13:07:01;3.93;;;1.33;;
5277;SDS011;2662;51.194;6.614;2022-08-21T13:09:32;2.83;;;1.43;;
5277;SDS011;2662;51.194;6.614;2022-08-21T13:12:00;5.20;;;1.17;;
5277;SDS011;2662;51.194;6.614;2022-08-21T13:14:28;3.80;;;1.17;;
5277;SDS011;2662;51.194;6.614;2022-08-21T13:16:58;5.40;;;1.23;;
5277;SDS011;2662;51.194;6.614;2022-08-21T13:19:25;2.53;;;1.33;;
5277;SDS011;2662;51.194;6.614;2022-08-21T13:21:54;4.30;;;1.30;;
5277;SDS011;2662;51.194;6.614;2022-08-21T13:24:23;3.33;;;1.63;;
5277;SDS011;2662;51.194;6.614;2022-08-21T13:26:53;5.97;;;1.90;;
5277;SDS011;2662;51.194;6.614;2022-08-21T13:29:23;6.13;;;1.33;;
5277;SDS011;2662;51.194;6.614;2022-08-21T13:31:56;5.90;;;1.70;;
5277;SDS011;2662;51.194;6.614;2022-08-21T13:34:29;2.00;;;1.60;;
5277;SDS011;2662;51.194;6.614;2022-08-21T13:36:58;2.93;;;1.47;;
5277;SDS011;2662;51.194;6.614;2022-08-21T13:39:27;1.00;;;0.87;;
5277;SDS011;2662;51.194;6.614;2022-08-21T13:41:55;5.23;;;1.50;;
5277;SDS011;2662;51.194;6.614;2022-08-21T13:44:31;3.57;;;1.23;;
5277;SDS011;2662;51.194;6.614;2022-08-21T13:47:01;2.47;;;1.10;;
5277;SDS011;2662;51.194;6.614;2022-08-21T13:49:30;2.33;;;1.60;;
5277;SDS011;2662;51.194;6.614;2022-08-21T13:51:58;3.20;;;1.40;;
5277;SDS011;2662;51.194;6.614;2022-08-21T13:54:27;2.20;;;1.10;;
5277;SDS011;2662;51.194;6.614;2022-08-21T13:56:59;2.97;;;1.40;;
5277;SDS011;2662;51.194;6.614;2022-08-21T13:59:28;3.50;;;1.40;;
5277;SDS011;2662;51.194;6.614;2022-08-21T14:01:57;3.30;;;1.57;;
5277;SDS011;2662;51.194;6.614;2022-08-21T14:04:30;3.40;;;1.10;;
5277;SDS011;2662;51.194;6.614;2022-08-21T14:06:59;2.93;;;1.23;;
5277;SDS011;2662;51.194;6.614;2022-08-21T14:09:28;3.90;;;1.23;;
5277;SDS011;2662;51.194;6.614;2022-08-21T14:11:57;3.70;;;1.30;;
5277;SDS011;2662;51.194;6.614;2022-08-21T14:14:28;8.03;;;1.50;;
5277;SDS011;2662;51.194;6.614;2022-08-21T14:16:58;4.60;;;1.60;;
5277;SDS011;2662;51.194;6.614;2022-08-21T14:19:35;2.97;;;1.47;;
5277;SDS011;2662;51.194;6.614;2022-08-21T14:24:49;4.70;;;1.50;;
5277;SDS011;2662;51.194;6.614;2022-08-21T14:27:24;2.73;;;1.13;;
5277;SDS011;2662;51.194;6.614;2022-08-21T14:29:56;13.63;;;1.40;;
5277;SDS011;2662;51.194;6.614;2022-08-21T14:32:25;9.40;;;1.40;;
5277;SDS011;2662;51.194;6.614;2022-08-21T14:34:55;2.93;;;1.10;;
5277;SDS011;2662;51.194;6.614;2022-08-21T14:37:22;2.07;;;1.27;;
5277;SDS011;2662;51.194;6.614;2022-08-21T14:39:50;2.93;;;1.17;;
5277;SDS011;2662;51.194;6.614;2022-08-21T14:42:17;4.40;;;1.80;;
5277;SDS011;2662;51.194;6.614;2022-08-21T14:44:44;4.60;;;1.40;;
5277;SDS011;2662;51.194;6.614;2022-08-21T14:47:13;1.67;;;0.90;;
5277;SDS011;2662;51.194;6.614;2022-08-21T14:49:39;7.70;;;1.60;;
5277;SDS011;2662;51.194;6.614;2022-08-21T14:52:06;3.73;;;1.17;;
5277;SDS011;2662;51.194;6.614;2022-08-21T14:54:33;4.00;;;1.27;;
5277;SDS011;2662;51.194;6.614;2022-08-21T14:57:01;6.37;;;1.20;;
5277;SDS011;2662;51.194;6.614;2022-08-21T14:59:31;2.50;;;1.17;;
5277;SDS011;2662;51.194;6.614;2022-08-21T15:01:58;3.30;;;1.20;;
5277;SDS011;2662;51.194;6.614;2022-08-21T15:04:27;4.40;;;1.27;;
5277;SDS011;2662;51.194;6.614;2022-08-21T15:06:54;2.60;;;1.30;;
5277;SDS011;2662;51.194;6.614;2022-08-21T15:09:20;4.83;;;1.40;;
5277;SDS011;2662;51.194;6.614;2022-08-21T15:11:48;8.90;;;1.77;;
5277;SDS011;2662;51.194;6.614;2022-08-21T15:14:17;4.20;;;1.47;;
5277;SDS011;2662;51.194;6.614;2022-08-21T15:16:46;2.20;;;1.53;;
5277;SDS011;2662;51.194;6.614;2022-08-21T15:19:14;3.07;;;1.37;;
5277;SDS011;2662;51.194;6.614;2022-08-21T15:21:42;2.10;;;1.20;;
5277;SDS011;2662;51.194;6.614;2022-08-21T15:24:09;2.90;;;1.50;;
5277;SDS011;2662;51.194;6.614;2022-08-21T15:26:36;5.00;;;1.50;;